Latest Weather Observations for Burnie Port

IDT60801

Issued at 6:32 pm EDT Friday 9 December 2016 (issued every 30 minutes, with the page automatically refreshed every 10 minutes)

About weather observations | Map of weather stations | Latest weather observations for TAS | Other Formats
Station Details ID: 091344 Name: BURNIE NTC AWS Lat: -41.05 Lon: 145.91 Height: 0.0 m
Data from the previous 72 hours. | See also: Recent months for locations in Tasmania
Date/Time
EDT
Temp
°C
App
Temp
°C
Dew
Point
°C
Rel
Hum
%
Delta-T
°C
Wind Press
QNH
hPa
Press
MSL
hPa
Rain since
9am
mm
Dir  Spd
km/h
Gust
km/h
Spd
kts
Gust
kts
09/06:00pm - - - - - WSW 24 39 13 21 1015.0 1015.0 -
09/05:30pm - - - - - SW 24 44 13 24 1014.3 1014.3 -
09/05:00pm - - - - - SW 22 41 12 22 1013.9 1013.9 -
09/04:30pm - - - - - WSW 22 39 12 21 1013.4 1013.4 -
09/04:00pm - - - - - WSW 22 39 12 21 1013.1 1013.1 -
09/03:30pm - - - - - WSW 30 44 16 24 1012.9 1012.9 -
09/03:10pm - - - - - SW 30 52 16 28 1012.5 1012.5 -
09/03:00pm - - - - - SW 32 50 17 27 1012.2 1012.2 -
09/02:41pm - - - - - WSW 28 50 15 27 1012.2 1012.2 -
09/02:30pm - - - - - SW 26 44 14 24 1012.0 1012.0 -
09/02:00pm - - - - - SW 28 46 15 25 1011.6 1011.6 -
09/01:51pm - - - - - SW 33 54 18 29 1011.6 1011.6 -
09/01:46pm - - - - - SW 30 52 16 28 1011.5 1011.5 -
09/01:45pm - - - - - SW 28 52 15 28 1011.5 1011.5 -
09/01:30pm - - - - - SW 19 35 10 19 1011.5 1011.5 -
09/01:00pm - - - - - SW 30 46 16 25 1011.5 1011.5 -
09/12:50pm - - - - - SW 28 48 15 26 1011.2 1011.2 -
09/12:30pm - - - - - SW 22 35 12 19 1010.8 1010.8 -
09/12:00pm - - - - - SW 20 41 11 22 1010.4 1010.4 -
09/11:30am - - - - - SW 24 43 13 23 1010.4 1010.4 -
09/11:00am - - - - - SW 17 32 9 17 1010.2 1010.2 -
09/10:39am - - - - - SW 28 50 15 27 1010.0 1010.0 -
09/10:30am - - - - - SW 24 44 13 24 1009.9 1009.9 -
09/10:00am - - - - - SSW 30 48 16 26 1009.4 1009.4 -
09/09:30am - - - - - SW 30 54 16 29 1009.0 1009.0 -
09/09:10am - - - - - SW 28 52 15 28 1008.5 1008.5 -
09/09:00am - - - - - SW 19 43 10 23 1008.4 1008.4 -
09/08:30am - - - - - SW 32 46 17 25 1007.8 1007.8 -
09/08:00am - - - - - SW 26 39 14 21 1007.2 1007.2 -
09/07:33am - - - - - WSW 28 48 15 26 1006.8 1006.8 -
09/07:30am - - - - - SW 24 48 13 26 1006.7 1006.7 -
09/07:00am - - - - - WSW 15 22 8 12 1005.9 1005.9 -
09/06:30am - - - - - W 7 15 4 8 1005.3 1005.3 -
09/06:00am - - - - - WSW 19 28 10 15 1005.0 1005.0 -
09/05:30am - - - - - W 11 22 6 12 1004.3 1004.3 -
09/05:00am - - - - - WSW 11 26 6 14 1003.5 1003.5 -
09/04:30am - - - - - W 11 20 6 11 1003.0 1003.0 -
09/04:01am - - - - - WSW 28 48 15 26 1002.4 1002.4 -
09/04:00am - - - - - WSW 26 43 14 23 1002.4 1002.4 -
09/03:30am - - - - - WSW 19 32 10 17 1001.7 1001.7 -
09/03:00am - - - - - WSW 17 35 9 19 1001.4 1001.4 -
09/02:31am - - - - - WSW 28 54 15 29 1000.7 1000.7 -
09/02:30am - - - - - WSW 26 54 14 29 1000.8 1000.8 -
09/02:00am - - - - - WSW 26 43 14 23 1000.2 1000.2 -
09/01:30am - - - - - WSW 22 37 12 20 1000.1 1000.1 -
09/01:00am - - - - - WSW 24 35 13 19 999.5 999.5 -
09/12:36am - - - - - WSW 28 50 15 27 999.2 999.2 -
09/12:30am - - - - - WSW 22 43 12 23 999.0 999.0 -
09/12:06am - - - - - WSW 28 48 15 26 998.7 998.7 -
09/12:00am - - - - - WSW 26 43 14 23 998.5 998.5 -
 
Date/Time
EDT
Temp
°C
App
Temp
°C
Dew
Point
°C
Rel
Hum
%
Delta-T
°C
Wind Press
QNH
hPa
Press
MSL
hPa
Rain since
9am
mm
Dir  Spd
km/h
Gust
km/h
Spd
kts
Gust
kts
08/11:32pm - - - - - WSW 28 46 15 25 997.7 997.7 -
08/11:30pm - - - - - WSW 26 46 14 25 997.5 997.5 -
08/11:00pm - - - - - WSW 30 57 16 31 996.8 996.8 -
08/10:30pm - - - - - WSW 28 50 15 27 996.3 996.3 -
08/10:29pm - - - - - WSW 28 50 15 27 996.3 996.3 -
08/10:00pm - - - - - W 26 46 14 25 995.5 995.5 -
08/09:30pm - - - - - W 19 33 10 18 994.6 994.6 -
08/09:00pm - - - - - W 26 43 14 23 993.7 993.7 -
08/08:30pm - - - - - W 24 44 13 24 992.9 992.9 -
08/08:00pm - - - - - W 28 44 15 24 992.4 992.4 -
08/07:30pm - - - - - W 24 41 13 22 991.7 991.7 -
08/07:06pm - - - - - W 28 56 15 30 991.0 991.0 -
08/07:00pm - - - - - WNW 24 43 13 23 990.9 990.9 -
08/06:33pm - - - - - WNW 28 46 15 25 990.2 990.2 -
08/06:30pm - - - - - WNW 30 46 16 25 990.1 990.1 -
08/06:29pm - - - - - WNW 28 46 15 25 990.0 990.0 -
08/06:00pm - - - - - WNW 22 35 12 19 989.7 989.7 -
08/05:47pm - - - - - WNW 28 46 15 25 989.3 989.3 -
08/05:30pm - - - - - W 22 43 12 23 989.0 989.0 -
08/05:00pm - - - - - W 33 54 18 29 988.4 988.4 -
08/04:30pm - - - - - WNW 35 56 19 30 987.4 987.4 -
08/04:22pm - - - - - NW 44 65 24 35 987.3 987.3 -
08/04:00pm - - - - - NW 54 72 29 39 987.1 987.1 -
08/03:30pm - - - - - NW 52 70 28 38 988.0 988.0 -
08/03:01pm - - - - - NW 52 70 28 38 988.8 988.8 -
08/03:00pm - - - - - NW 54 70 29 38 988.8 988.8 -
08/02:35pm - - - - - NW 46 65 25 35 989.3 989.3 -
08/02:30pm - - - - - NW 50 65 27 35 989.4 989.4 -
08/02:00pm - - - - - NW 41 56 22 30 989.9 989.9 -
08/01:30pm - - - - - NNW 39 48 21 26 990.6 990.6 -
08/01:00pm - - - - - NW 44 57 24 31 990.8 990.8 -
08/12:30pm - - - - - NW 46 65 25 35 990.9 990.9 -
08/12:00pm - - - - - NW 46 65 25 35 990.8 990.8 -
08/11:59am - - - - - NW 46 65 25 35 990.8 990.8 -
08/11:30am - - - - - NNW 44 57 24 31 990.7 990.7 -
08/11:00am - - - - - NNW 41 56 22 30 990.7 990.7 -
08/10:30am - - - - - N 46 61 25 33 990.6 990.6 -
08/10:00am - - - - - N 48 65 26 35 990.6 990.6 -
08/09:56am - - - - - N 46 65 25 35 990.7 990.7 -
08/09:30am - - - - - NNE 35 43 19 23 992.3 992.3 -
08/09:00am - - - - - NE 39 52 21 28 993.1 993.1 -
08/08:48am - - - - - NE 30 48 16 26 993.8 993.8 -
08/08:30am - - - - - E 30 41 16 22 995.0 995.0 -
08/08:21am - - - - - E 28 43 15 23 995.5 995.5 -
08/08:00am - - - - - ESE 24 37 13 20 996.9 996.9 -
08/07:30am - - - - - ESE 35 48 19 26 997.3 997.3 -
08/07:00am - - - - - ESE 26 37 14 20 998.4 998.4 -
08/06:30am - - - - - ESE 28 54 15 29 998.6 998.6 -
08/06:26am - - - - - ESE 33 54 18 29 998.9 998.9 -
08/06:00am - - - - - ESE 37 48 20 26 998.9 998.9 -
08/05:30am - - - - - ESE 32 43 17 23 999.1 999.1 -
08/05:00am - - - - - SE 26 35 14 19 1000.2 1000.2 -
08/04:30am - - - - - ESE 26 33 14 18 1001.3 1001.3 -
08/04:00am - - - - - ESE 32 35 17 19 1001.2 1001.2 -
08/03:30am - - - - - E 22 28 12 15 1003.0 1003.0 -
08/03:00am - - - - - ESE 22 32 12 17 1003.4 1003.4 -
08/02:30am - - - - - ESE 20 26 11 14 1003.5 1003.5 -
08/02:00am - - - - - E 19 22 10 12 1004.7 1004.7 -
08/01:30am - - - - - E 15 24 8 13 1005.7 1005.7 -
08/01:00am - - - - - E 13 19 7 10 1006.0 1006.0 -
08/12:30am - - - - - ESE 19 22 10 12 1006.5 1006.5 -
08/12:00am - - - - - ESE 9 15 5 8 1007.2 1007.2 -
 
Date/Time
EDT
Temp
°C
App
Temp
°C
Dew
Point
°C
Rel
Hum
%
Delta-T
°C
Wind Press
QNH
hPa
Press
MSL
hPa
Rain since
9am
mm
Dir  Spd
km/h
Gust
km/h
Spd
kts
Gust
kts
07/11:30pm - - - - - S 11 13 6 7 1007.3 1007.3 -
07/11:00pm - - - - - S 11 13 6 7 1007.7 1007.7 -
07/10:30pm - - - - - S 7 7 4 4 1008.2 1008.2 -
07/10:00pm - - - - - ESE 4 6 2 3 1008.4 1008.4 -
07/09:30pm - - - - - N 2 4 1 2 1008.6 1008.6 -
07/09:00pm - - - - - NW 4 7 2 4 1008.9 1008.9 -
07/08:30pm - - - - - WNW 6 11 3 6 1009.3 1009.3 -
07/08:00pm - - - - - NNW 19 22 10 12 1009.6 1009.6 -
07/07:30pm - - - - - NNW 17 19 9 10 1009.8 1009.8 -
07/07:00pm - - - - - NW 24 28 13 15 1009.9 1009.9 -
07/06:30pm - - - - - NW 19 24 10 13 1010.3 1010.3 -
07/06:00pm - - - - - NW 22 28 12 15 1010.7 1010.7 -
07/05:30pm - - - - - NW 22 26 12 14 1011.0 1011.0 -
07/05:00pm - - - - - NW 26 33 14 18 1011.4 1011.4 -
07/04:30pm - - - - - NW 26 32 14 17 1011.8 1011.8 -
07/04:00pm - - - - - NW 28 35 15 19 1011.8 1011.8 -
07/03:30pm - - - - - NW 26 33 14 18 1011.8 1011.8 -
07/03:00pm - - - - - NW 26 32 14 17 1012.1 1012.1 -
07/02:30pm - - - - - NW 28 35 15 19 1012.4 1012.4 -
07/02:00pm - - - - - NW 30 35 16 19 1012.2 1012.2 -
07/01:30pm - - - - - NW 26 33 14 18 1012.4 1012.4 -
07/01:00pm - - - - - NNW 30 37 16 20 1012.6 1012.6 -
07/12:30pm - - - - - NNW 28 33 15 18 1012.8 1012.8 -
07/12:00pm - - - - - NNW 26 32 14 17 1012.9 1012.9 -
07/11:30am - - - - - NNW 24 32 13 17 1013.0 1013.0 -
07/11:00am - - - - - NNW 24 28 13 15 1013.0 1013.0 -
07/10:30am - - - - - NNW 22 28 12 15 1013.1 1013.1 -
07/10:00am - - - - - NNW 20 24 11 13 1013.2 1013.2 -
07/09:30am - - - - - NNW 13 15 7 8 1013.6 1013.6 -
07/09:00am - - - - - NNW 11 13 6 7 1013.7 1013.7 -
07/08:30am - - - - - NNW 11 13 6 7 1013.5 1013.5 -
07/08:00am - - - - - NW 11 15 6 8 1013.4 1013.4 -
07/07:30am - - - - - NNW 7 9 4 5 1013.2 1013.2 -
07/07:00am - - - - - SSE 4 6 2 3 1013.2 1013.2 -
07/06:30am - - - - - ESE 4 6 2 3 1012.9 1012.9 -
07/06:00am - - - - - W 6 11 3 6 1012.6 1012.6 -

Other Formats:

Comma delimited format used in spreadsheet applications
http://www.bom.gov.au/fwo/IDT60801/IDT60801.95963.axf

JavaScript Object Notation format (JSON) in row-major order
http://www.bom.gov.au/fwo/IDT60801/IDT60801.95963.json